createdAt,value
2022-10-23T00:00:48.843Z,17.80
2022-10-23T00:05:52.446Z,17.66
2022-10-23T00:10:55.991Z,17.49
2022-10-23T00:16:01.176Z,17.49
2022-10-23T00:21:05.991Z,17.37
2022-10-23T00:26:09.670Z,17.27
2022-10-23T00:31:15.226Z,17.16
2022-10-23T00:36:20.685Z,17.01
2022-10-23T00:41:26.299Z,16.91
2022-10-23T00:46:32.902Z,16.70
2022-10-23T00:51:41.229Z,16.76
2022-10-23T00:56:46.159Z,16.59
2022-10-23T01:01:52.671Z,16.49
2022-10-23T01:07:04.487Z,16.31
2022-10-23T01:12:16.072Z,16.28
2022-10-23T01:17:30.057Z,16.23
2022-10-23T01:22:59.391Z,16.17
2022-10-23T01:28:10.105Z,16.19
2022-10-23T01:33:18.650Z,16.04
2022-10-23T01:38:29.663Z,15.86
2022-10-23T01:43:41.790Z,15.71
2022-10-23T01:48:49.242Z,15.68
2022-10-23T01:53:56.658Z,15.65
2022-10-23T01:59:05.406Z,15.58
2022-10-23T02:04:13.010Z,15.54
2022-10-23T02:09:16.902Z,15.50
2022-10-23T02:14:29.792Z,15.50
2022-10-23T02:19:41.903Z,15.47
2022-10-23T02:24:50.497Z,15.44
2022-10-23T02:29:58.648Z,15.30
2022-10-23T02:35:02.686Z,15.21
2022-10-23T02:40:08.995Z,15.20
2022-10-23T02:45:20.336Z,15.19
2022-10-23T02:50:31.603Z,15.26
2022-10-23T02:55:46.437Z,15.25
2022-10-23T03:00:55.693Z,15.23
2022-10-23T03:05:59.603Z,15.26
2022-10-23T03:11:03.114Z,15.18
2022-10-23T03:16:08.585Z,15.05
2022-10-23T03:21:12.095Z,14.95
2022-10-23T03:26:15.669Z,14.96
2022-10-23T03:31:20.847Z,14.93
2022-10-23T03:36:24.383Z,14.84
2022-10-23T03:41:28.023Z,14.69
2022-10-23T03:46:33.172Z,14.64
2022-10-23T03:51:36.702Z,14.77
2022-10-23T03:56:40.255Z,14.73
2022-10-23T04:01:46.059Z,14.74
2022-10-23T04:06:48.973Z,14.71
2022-10-23T04:11:52.941Z,14.65
2022-10-23T04:16:58.122Z,14.58
2022-10-23T04:22:01.640Z,14.48
2022-10-23T04:27:05.296Z,14.30
2022-10-23T04:32:10.490Z,14.22
2022-10-23T04:37:14.036Z,14.26
2022-10-23T04:42:17.605Z,14.35
2022-10-23T04:47:22.770Z,14.37
2022-10-23T04:52:26.350Z,14.34
2022-10-23T04:57:29.885Z,14.41
2022-10-23T05:02:35.099Z,14.32
2022-10-23T05:07:39.061Z,14.31
2022-10-23T05:12:42.577Z,14.30
2022-10-23T05:17:50.955Z,14.27
2022-10-23T05:22:57.626Z,14.32
2022-10-23T05:28:01.171Z,14.32
2022-10-23T05:33:06.770Z,14.28
2022-10-23T05:38:11.073Z,14.19
2022-10-23T05:43:14.604Z,14.23
2022-10-23T05:48:30.077Z,14.26
2022-10-23T05:53:40.102Z,14.23
2022-10-23T05:58:46.364Z,14.17
2022-10-23T06:03:51.734Z,14.20
2022-10-23T06:08:55.947Z,14.26
2022-10-23T06:13:59.465Z,14.23
2022-10-23T06:19:05.131Z,14.24
2022-10-23T06:24:09.098Z,14.19
2022-10-23T06:29:12.659Z,14.15
2022-10-23T06:34:17.822Z,14.18
2022-10-23T06:39:21.491Z,14.08
2022-10-23T06:44:25.993Z,14.07
2022-10-23T06:49:31.156Z,14.00
2022-10-23T06:54:34.824Z,13.98
2022-10-23T06:59:38.334Z,13.97
2022-10-23T07:04:43.508Z,14.05
2022-10-23T07:09:47.042Z,13.94
2022-10-23T07:14:51.167Z,13.94
2022-10-23T07:19:56.382Z,13.95
2022-10-23T07:24:59.914Z,13.92
2022-10-23T07:30:03.468Z,13.89
2022-10-23T07:35:09.765Z,13.85
2022-10-23T07:40:13.605Z,13.80
2022-10-23T07:45:17.292Z,13.77
2022-10-23T07:50:22.503Z,13.75
2022-10-23T07:55:26.094Z,13.74
2022-10-23T08:00:29.627Z,13.70
2022-10-23T08:05:34.797Z,13.69
2022-10-23T08:10:38.348Z,13.62
2022-10-23T08:15:42.829Z,13.61
2022-10-23T08:20:49.292Z,13.58
2022-10-23T08:25:58.627Z,13.57
2022-10-23T08:31:09.344Z,13.54
2022-10-23T08:36:20.720Z,13.50
2022-10-23T08:41:28.815Z,13.49
2022-10-23T08:46:38.443Z,13.44
2022-10-23T08:51:47.769Z,13.43
2022-10-23T08:56:55.078Z,13.40
2022-10-23T09:02:02.043Z,13.42
2022-10-23T09:07:15.649Z,13.46
2022-10-23T09:12:23.108Z,13.42
2022-10-23T09:17:28.218Z,13.44
2022-10-23T09:22:33.478Z,13.48
2022-10-23T09:27:37.043Z,13.44
2022-10-23T09:32:40.646Z,13.40
2022-10-23T09:37:48.551Z,13.43
2022-10-23T09:42:57.289Z,13.44
2022-10-23T09:48:21.084Z,13.45
2022-10-23T09:53:32.961Z,13.44
2022-10-23T09:58:39.382Z,13.44
2022-10-23T10:03:50.349Z,13.43
2022-10-23T10:08:57.129Z,13.36
2022-10-23T10:14:24.961Z,13.39
2022-10-23T10:19:44.489Z,13.40
2022-10-23T10:24:53.370Z,13.33
2022-10-23T10:30:06.052Z,13.23
2022-10-23T10:35:25.514Z,13.14
2022-10-23T10:40:35.008Z,13.11
2022-10-23T10:45:42.498Z,13.11
2022-10-23T10:50:51.640Z,13.01
2022-10-23T10:55:59.462Z,12.98
2022-10-23T11:01:12.256Z,12.93
2022-10-23T11:06:19.481Z,12.93
2022-10-23T11:11:29.541Z,12.95
2022-10-23T11:16:37.442Z,12.94
2022-10-23T11:21:44.894Z,12.83
2022-10-23T11:27:08.904Z,12.80
2022-10-23T11:32:38.765Z,12.83
2022-10-23T11:37:43.428Z,12.80
2022-10-23T11:42:50.462Z,12.76
2022-10-23T11:47:59.236Z,12.72
2022-10-23T11:53:21.228Z,12.69
2022-10-23T11:58:40.788Z,12.66
2022-10-23T12:03:52.239Z,12.64
2022-10-23T12:09:01.722Z,12.64
2022-10-23T12:14:25.358Z,12.68
2022-10-23T12:19:30.594Z,12.62
2022-10-23T12:24:49.987Z,12.62
2022-10-23T12:30:11.982Z,12.62
2022-10-23T12:35:50.124Z,12.57
2022-10-23T12:40:56.062Z,12.51
2022-10-23T12:46:05.861Z,12.49
2022-10-23T12:51:23.076Z,12.47
2022-10-23T12:56:29.496Z,12.50
2022-10-23T13:01:39.417Z,12.50
2022-10-23T13:06:45.617Z,12.51
2022-10-23T13:11:50.023Z,12.47
2022-10-23T13:17:02.629Z,12.36
2022-10-23T13:22:19.359Z,12.33
2022-10-23T13:27:34.976Z,12.23
2022-10-23T13:32:40.177Z,12.01
2022-10-23T13:42:50.246Z,11.87
2022-10-23T13:47:55.438Z,11.75
2022-10-23T13:52:58.950Z,11.77
2022-10-23T13:58:02.467Z,11.77
2022-10-23T14:03:07.713Z,11.80
2022-10-23T14:08:11.534Z,11.82
2022-10-23T14:13:15.259Z,11.85
2022-10-23T14:18:20.456Z,11.85
2022-10-23T14:23:23.971Z,11.80
2022-10-23T14:28:27.486Z,11.89
2022-10-23T14:33:32.764Z,11.94
2022-10-23T14:38:36.343Z,12.03
2022-10-23T14:43:40.063Z,12.22
2022-10-23T14:48:47.176Z,12.51
2022-10-23T14:53:58.894Z,12.86
2022-10-23T14:59:03.007Z,13.18
2022-10-23T15:04:08.391Z,13.47
2022-10-23T15:09:11.939Z,13.88
2022-10-23T15:14:15.490Z,14.27
2022-10-23T15:19:20.660Z,14.58
2022-10-23T15:24:24.237Z,14.90
2022-10-23T15:29:27.752Z,15.32
2022-10-23T15:34:33.201Z,15.66
2022-10-23T15:39:36.925Z,16.05
2022-10-23T15:44:40.957Z,16.30
2022-10-23T15:49:46.101Z,16.33
2022-10-23T15:54:49.636Z,16.53
2022-10-23T15:59:53.168Z,16.67
2022-10-23T16:04:58.327Z,16.95
2022-10-23T16:10:01.852Z,17.22
2022-10-23T16:15:05.976Z,17.50
2022-10-23T16:20:12.057Z,17.59
2022-10-23T16:25:15.699Z,17.72
2022-10-23T16:30:19.333Z,17.88
2022-10-23T16:35:24.796Z,18.06
2022-10-23T16:40:28.370Z,18.44
2022-10-23T16:45:34.418Z,18.70
2022-10-23T16:50:42.654Z,18.65
2022-10-23T16:55:46.155Z,18.95
2022-10-23T17:00:57.903Z,19.21
2022-10-23T17:06:06.187Z,19.49
2022-10-23T17:11:14.230Z,19.60
2022-10-23T17:16:20.928Z,19.78
2022-10-23T17:21:26.109Z,19.95
2022-10-23T17:26:30.090Z,20.29
2022-10-23T17:31:35.186Z,20.32
2022-10-23T17:36:42.434Z,20.36
2022-10-23T17:41:46.197Z,20.54
2022-10-23T17:46:52.182Z,20.66
2022-10-23T17:51:58.173Z,20.93
2022-10-23T17:57:01.707Z,20.92
2022-10-23T18:02:05.299Z,21.24
2022-10-23T18:07:10.517Z,21.39
2022-10-23T18:12:14.054Z,21.46
2022-10-23T18:17:17.590Z,21.39
2022-10-23T18:22:22.820Z,21.57
2022-10-23T18:27:26.410Z,21.41
2022-10-23T18:32:29.953Z,21.42
2022-10-23T18:37:38.974Z,21.25
2022-10-23T18:42:45.340Z,21.28
2022-10-23T18:47:49.259Z,21.49
2022-10-23T18:52:54.610Z,21.70
2022-10-23T18:57:57.400Z,21.97
2022-10-23T19:03:01.607Z,21.93
2022-10-23T19:08:07.122Z,22.13
2022-10-23T19:13:10.710Z,22.10
2022-10-23T19:18:14.352Z,22.03
2022-10-23T19:23:19.573Z,22.06
2022-10-23T19:28:23.174Z,21.64
2022-10-23T19:33:26.719Z,21.95
2022-10-23T19:38:31.933Z,22.00
2022-10-23T19:43:35.495Z,21.95
2022-10-23T19:48:39.099Z,22.05
2022-10-23T19:53:44.293Z,22.18
2022-10-23T19:58:48.100Z,22.22
2022-10-23T20:03:51.780Z,22.22
2022-10-23T20:08:57.559Z,22.51
2022-10-23T20:14:01.092Z,22.69
2022-10-23T20:19:05.953Z,22.70
2022-10-23T20:24:12.431Z,22.54
2022-10-23T20:29:16.165Z,22.44
2022-10-23T20:34:19.894Z,22.59
2022-10-23T20:39:25.663Z,22.71
2022-10-23T20:44:29.628Z,22.61
2022-10-23T20:49:33.212Z,22.82
2022-10-23T20:54:38.398Z,22.93
2022-10-23T20:59:41.169Z,23.08
2022-10-23T21:04:44.837Z,23.06
2022-10-23T21:09:50.055Z,23.21
2022-10-23T21:14:53.873Z,23.43
2022-10-23T21:19:57.426Z,23.15
2022-10-23T21:25:02.614Z,23.22
2022-10-23T21:30:05.907Z,23.01
2022-10-23T21:35:10.902Z,22.80
2022-10-23T21:40:17.445Z,22.86
2022-10-23T21:45:21.001Z,22.75
2022-10-23T21:50:24.589Z,23.00
2022-10-23T21:55:31.510Z,22.90
2022-10-23T22:00:35.037Z,22.95
2022-10-23T22:05:38.565Z,22.99
2022-10-23T22:10:43.746Z,22.93
2022-10-23T22:15:46.526Z,22.89
2022-10-23T22:20:50.713Z,22.81
2022-10-23T22:25:56.133Z,22.84
2022-10-23T22:31:00.315Z,22.71
2022-10-23T22:36:04.107Z,22.64
2022-10-23T22:41:09.716Z,22.42
2022-10-23T22:46:15.339Z,22.08
2022-10-23T22:51:21.096Z,21.75
2022-10-23T22:56:28.062Z,21.78
2022-10-23T23:01:34.733Z,21.61
2022-10-23T23:06:38.319Z,21.32
2022-10-23T23:11:51.302Z,21.28
2022-10-23T23:16:55.482Z,21.05
2022-10-23T23:21:59.828Z,20.67
2022-10-23T23:27:05.165Z,20.57
2022-10-23T23:32:07.957Z,20.76
2022-10-23T23:37:11.503Z,20.68
2022-10-23T23:42:16.686Z,20.68
2022-10-23T23:47:20.281Z,20.57
2022-10-23T23:52:24.019Z,20.50
2022-10-23T23:57:29.396Z,20.35
